Time;durP1;ratioP1;P1;durP2;ratioP2;P2;SDS_P1;SDS_P2;PMS_P1;PMS_P2;Temp;Humidity;BMP_temperature;BMP_pressure;BME280_temperature;BME280_humidity;BME280_pressure;Samples;Min_cycle;Max_cycle;Signal;HPM_P1;HPM_P2
2022/05/23 00:01:19;;;;;;;4.45;3.42;;;11.50;99.90;;;;;;4963207;28;20507;-84
2022/05/23 00:03:45;;;;;;;3.35;3.05;;;11.50;99.90;;;;;;4975351;28;20038;-83
2022/05/23 00:06:19;;;;;;;3.38;2.97;;;11.50;99.90;;;;;;4962202;28;20026;-83
2022/05/23 00:08:46;;;;;;;4.05;3.63;;;11.50;99.90;;;;;;4994706;28;20026;-84
2022/05/23 00:11:12;;;;;;;4.53;3.38;;;11.50;99.90;;;;;;4998729;28;20018;-84
2022/05/23 00:13:38;;;;;;;6.80;3.58;;;11.50;99.90;;;;;;4975932;28;20532;-83
2022/05/23 00:16:04;;;;;;;4.50;3.53;;;11.50;99.90;;;;;;4974166;28;20029;-83
2022/05/23 00:18:31;;;;;;;4.30;3.13;;;11.40;99.90;;;;;;5004173;28;20132;-84
2022/05/23 00:20:56;;;;;;;3.08;2.78;;;11.40;99.90;;;;;;5003803;28;20217;-83
2022/05/23 00:23:25;;;;;;;5.03;3.33;;;11.40;99.90;;;;;;4973826;28;20033;-84
2022/05/23 00:25:52;;;;;;;4.22;3.72;;;11.40;99.90;;;;;;4946859;28;20033;-83
2022/05/23 00:28:18;;;;;;;3.33;2.88;;;11.40;99.90;;;;;;4955626;28;20042;-84
2022/05/23 00:30:45;;;;;;;5.72;3.88;;;11.30;99.90;;;;;;4976308;28;20068;-83
2022/05/23 00:35:57;;;;;;;6.07;4.50;;;11.30;99.90;;;;;;4974043;28;20349;-83
2022/05/23 00:38:23;;;;;;;5.60;3.80;;;11.30;99.90;;;;;;4981926;28;20559;-83
2022/05/23 00:43:13;;;;;;;6.35;3.60;;;11.20;99.90;;;;;;4949010;28;20069;-83
2022/05/23 00:43:48;;;;;;;4.63;3.75;;;11.20;99.90;;;;;;4996860;28;20033;-83
2022/05/23 00:46:13;;;;;;;6.78;3.25;;;11.20;99.90;;;;;;4977791;28;20036;-83
2022/05/23 00:48:39;;;;;;;6.78;3.30;;;11.20;99.90;;;;;;4990005;28;20121;-83
2022/05/23 00:51:12;;;;;;;5.25;3.13;;;11.20;99.90;;;;;;4996731;28;20204;-83
2022/05/23 00:53:43;;;;;;;4.63;3.60;;;11.20;99.90;;;;;;4988922;28;20034;-82
2022/05/23 00:56:15;;;;;;;4.20;3.15;;;11.20;99.90;;;;;;4967387;28;20034;-83
2022/05/23 00:58:49;;;;;;;4.93;3.70;;;11.20;99.90;;;;;;4993638;28;20088;-83
2022/05/23 01:01:20;;;;;;;5.45;3.35;;;11.20;99.90;;;;;;4994978;28;20022;-82
2022/05/23 01:03:46;;;;;;;3.65;2.83;;;11.20;99.90;;;;;;4974213;28;20045;-82
2022/05/23 01:06:12;;;;;;;5.60;3.33;;;11.20;99.90;;;;;;4993532;28;20030;-82
2022/05/23 01:08:44;;;;;;;3.08;2.88;;;11.10;99.90;;;;;;4986291;28;20022;-83
2022/05/23 01:11:11;;;;;;;3.45;3.13;;;11.10;99.90;;;;;;4965947;28;20050;-83
2022/05/23 01:13:37;;;;;;;5.95;3.85;;;11.10;99.90;;;;;;4999274;28;20084;-83
2022/05/23 01:16:05;;;;;;;3.88;3.13;;;11.00;99.90;;;;;;4976312;28;20032;-83
2022/05/23 01:18:36;;;;;;;3.67;3.22;;;11.00;99.90;;;;;;4977483;28;20030;-83
2022/05/23 01:21:05;;;;;;;4.60;3.20;;;11.00;99.90;;;;;;4961774;28;20099;-83
2022/05/23 01:23:54;;;;;;;4.20;2.97;;;11.00;99.90;;;;;;5006157;28;20044;-83
2022/05/23 01:26:25;;;;;;;5.25;3.55;;;10.90;99.90;;;;;;4973000;28;20621;-83
2022/05/23 01:28:53;;;;;;;5.82;3.38;;;10.90;99.90;;;;;;4949639;28;20038;-83
2022/05/23 01:31:35;;;;;;;5.88;3.47;;;10.90;99.90;;;;;;4979030;28;20036;-83
2022/05/23 01:34:10;;;;;;;3.30;3.00;;;10.90;99.90;;;;;;4965916;28;20116;-83
2022/05/23 01:36:46;;;;;;;3.38;3.08;;;10.80;99.90;;;;;;4968717;28;20143;-83
2022/05/23 01:39:12;;;;;;;2.90;2.70;;;10.80;99.90;;;;;;4972846;28;20069;-83
2022/05/23 01:41:38;;;;;;;5.78;3.13;;;10.80;99.90;;;;;;4944920;28;20064;-83
2022/05/23 01:44:04;;;;;;;5.43;3.47;;;10.80;99.90;;;;;;4967143;28;20492;-83
2022/05/23 01:46:33;;;;;;;4.03;2.70;;;10.80;99.90;;;;;;4988630;28;20038;-83
2022/05/23 01:49:12;;;;;;;4.32;3.17;;;10.80;99.90;;;;;;4993919;28;20026;-82
2022/05/23 01:51:39;;;;;;;5.72;3.25;;;10.80;99.90;;;;;;4980380;28;20408;-82
2022/05/23 01:54:04;;;;;;;2.72;2.53;;;10.70;99.90;;;;;;4970031;28;20037;-84
2022/05/23 01:56:32;;;;;;;3.78;3.33;;;10.70;99.90;;;;;;4940070;28;20649;-83
2022/05/23 02:01:44;;;;;;;3.45;3.05;;;10.70;99.90;;;;;;4988671;28;20412;-82
2022/05/23 02:04:17;;;;;;;4.10;3.13;;;10.70;99.90;;;;;;4936539;28;1073541;-83
2022/05/23 02:06:43;;;;;;;4.93;3.50;;;10.60;99.90;;;;;;4967538;28;20041;-82
2022/05/23 02:09:27;;;;;;;3.47;3.03;;;10.60;99.90;;;;;;4970465;28;20110;-83
2022/05/23 02:12:17;;;;;;;4.32;3.15;;;10.60;99.90;;;;;;4992496;28;20026;-83
2022/05/23 02:14:45;;;;;;;3.33;2.92;;;10.60;99.90;;;;;;4976829;28;20484;-84
2022/05/23 02:17:23;;;;;;;3.85;3.00;;;10.60;99.90;;;;;;4962014;28;20045;-83
2022/05/23 02:19:51;;;;;;;3.38;2.65;;;10.50;99.90;;;;;;4986566;28;20034;-83
2022/05/23 02:22:18;;;;;;;4.05;2.85;;;10.50;99.90;;;;;;4965202;28;20982;-83
2022/05/23 02:24:44;;;;;;;4.20;2.95;;;10.50;99.90;;;;;;4955045;28;20128;-83
2022/05/23 02:27:10;;;;;;;3.00;2.70;;;10.40;99.90;;;;;;4969264;28;20045;-84
2022/05/23 02:29:39;;;;;;;2.75;2.55;;;10.50;99.90;;;;;;4960913;28;20045;-83
2022/05/23 02:32:06;;;;;;;5.53;3.28;;;10.40;99.90;;;;;;4982860;28;20625;-83
2022/05/23 02:34:32;;;;;;;3.58;2.70;;;10.40;99.90;;;;;;4967526;28;20092;-83
2022/05/23 02:36:58;;;;;;;6.97;3.33;;;10.50;99.90;;;;;;4963832;28;20038;-83
2022/05/23 02:39:37;;;;;;;4.18;3.28;;;10.50;99.90;;;;;;4949257;28;20029;-83
2022/05/23 02:42:04;;;;;;;3.15;2.85;;;10.50;99.90;;;;;;4960591;28;20034;-83
2022/05/23 02:44:30;;;;;;;5.00;3.00;;;10.40;99.90;;;;;;4989952;28;20420;-83
2022/05/23 02:46:57;;;;;;;4.53;3.28;;;10.40;99.90;;;;;;4944649;28;20439;-82
2022/05/23 02:49:27;;;;;;;3.63;3.33;;;10.30;99.90;;;;;;4972437;28;20172;-83
2022/05/23 02:51:53;;;;;;;3.20;2.90;;;10.30;99.90;;;;;;4976264;28;20066;-83
2022/05/23 02:54:21;;;;;;;3.53;2.83;;;10.30;99.90;;;;;;4956508;28;20389;-83
2022/05/23 02:56:55;;;;;;;3.65;3.33;;;10.30;99.90;;;;;;4976186;28;20451;-83
2022/05/23 02:59:22;;;;;;;3.83;3.42;;;10.30;99.90;;;;;;4960227;28;20026;-83
2022/05/23 03:04:43;;;;;;;4.78;3.00;;;10.30;99.90;;;;;;4979107;28;20045;-83
2022/05/23 03:07:10;;;;;;;4.03;3.25;;;10.30;99.90;;;;;;5003975;28;20400;-84
2022/05/23 03:09:35;;;;;;;5.15;3.47;;;10.30;99.90;;;;;;4956730;28;20489;-83
2022/05/23 03:12:01;;;;;;;3.53;2.90;;;10.40;99.90;;;;;;4968992;28;20025;-83
2022/05/23 03:14:28;;;;;;;4.03;3.05;;;10.50;99.90;;;;;;4971860;28;20030;-83
2022/05/23 03:17:04;;;;;;;3.60;2.80;;;10.50;99.90;;;;;;4980710;28;20037;-84
2022/05/23 03:19:38;;;;;;;6.20;2.85;;;10.60;99.90;;;;;;4979544;28;20132;-83
2022/05/23 03:27:38;;;;;;;6.28;3.78;;;10.70;99.90;;;;;;4962054;28;20038;-83
2022/05/23 03:30:13;;;;;;;2.42;2.22;;;10.70;99.90;;;;;;4977739;28;20042;-84
2022/05/23 03:32:51;;;;;;;3.70;3.20;;;10.80;99.90;;;;;;5001831;28;20044;-83
2022/05/23 03:35:16;;;;;;;3.88;2.83;;;10.80;99.90;;;;;;4973318;28;20038;-83
2022/05/23 03:37:42;;;;;;;2.58;2.38;;;10.80;99.90;;;;;;4968921;28;20160;-83
2022/05/23 03:40:10;;;;;;;3.47;2.58;;;10.90;99.90;;;;;;4981841;28;20384;-84
2022/05/23 03:42:41;;;;;;;3.70;2.72;;;10.90;99.90;;;;;;4991261;28;20034;-83
2022/05/23 03:45:08;;;;;;;3.38;2.65;;;11.00;99.90;;;;;;4995156;28;20061;-83
2022/05/23 03:47:41;;;;;;;2.60;2.40;;;11.00;99.90;;;;;;4979545;28;20377;-84
2022/05/23 03:50:13;;;;;;;2.90;2.60;;;11.10;99.90;;;;;;4963986;28;20030;-83
2022/05/23 03:52:38;;;;;;;3.28;2.63;;;11.20;99.90;;;;;;4997484;28;20033;-83
2022/05/23 03:55:05;;;;;;;2.47;2.30;;;11.30;99.90;;;;;;4953491;28;20053;-83
2022/05/23 03:57:31;;;;;;;2.97;2.78;;;11.30;99.90;;;;;;4983633;28;20628;-83
2022/05/23 03:59:57;;;;;;;3.28;2.42;;;11.30;99.90;;;;;;4986647;28;20038;-83
2022/05/23 04:02:23;;;;;;;3.47;2.65;;;11.30;99.90;;;;;;4956038;28;20034;-84
2022/05/23 04:04:49;;;;;;;3.58;2.80;;;11.40;99.90;;;;;;4962384;28;20049;-83
2022/05/23 04:07:38;;;;;;;2.97;2.70;;;11.40;99.90;;;;;;4981413;28;20714;-83
2022/05/23 04:10:17;;;;;;;2.50;2.30;;;11.50;99.90;;;;;;4977471;28;20648;-84
2022/05/23 04:12:44;;;;;;;2.75;2.25;;;11.50;99.90;;;;;;4999633;28;20036;-84
2022/05/23 04:15:11;;;;;;;5.10;2.83;;;11.60;99.90;;;;;;4947054;28;20105;-83
2022/05/23 04:17:38;;;;;;;2.47;2.28;;;11.70;99.90;;;;;;5004903;28;20038;-84
2022/05/23 04:20:04;;;;;;;2.92;2.63;;;11.80;99.90;;;;;;4989706;28;20030;-83
2022/05/23 04:22:35;;;;;;;3.78;2.42;;;11.80;99.90;;;;;;4962090;28;20060;-83
2022/05/23 04:25:05;;;;;;;4.00;2.30;;;11.80;99.90;;;;;;4972145;28;20030;-83
2022/05/23 04:27:32;;;;;;;3.75;2.05;;;11.80;99.90;;;;;;4974305;28;20041;-83
2022/05/23 04:29:58;;;;;;;3.58;2.45;;;11.80;99.90;;;;;;4998533;28;20022;-84
2022/05/23 04:35:22;;;;;;;7.05;5.03;;;11.80;99.90;;;;;;4999934;28;20037;-83
2022/05/23 04:37:50;;;;;;;2.67;2.47;;;11.90;99.90;;;;;;4990994;28;20067;-83
2022/05/23 04:40:22;;;;;;;2.45;2.25;;;11.90;99.90;;;;;;4961700;28;20045;-83
2022/05/23 04:42:48;;;;;;;2.30;2.10;;;12.00;99.90;;;;;;4977998;28;20026;-83
2022/05/23 04:45:14;;;;;;;2.58;1.90;;;12.00;99.90;;;;;;4980563;28;20025;-84
2022/05/23 04:50:33;;;;;;;5.43;2.35;;;12.20;99.90;;;;;;4966781;28;20112;-83
2022/05/23 04:53:05;;;;;;;2.97;2.20;;;12.20;99.90;;;;;;4986100;28;20033;-83
2022/05/23 04:55:36;;;;;;;6.93;2.72;;;12.30;99.90;;;;;;4976010;28;20032;-82
2022/05/23 04:58:04;;;;;;;2.75;1.90;;;12.40;99.90;;;;;;4986828;28;20026;-83
2022/05/23 05:00:30;;;;;;;2.95;2.35;;;12.40;99.90;;;;;;4993810;28;20045;-83
2022/05/23 05:03:01;;;;;;;2.78;2.40;;;12.50;99.90;;;;;;4973873;28;20030;-84
2022/05/23 05:05:44;;;;;;;3.03;1.77;;;12.50;99.90;;;;;;4964144;28;20037;-83
2022/05/23 05:08:11;;;;;;;2.63;2.33;;;12.60;99.90;;;;;;4966836;28;20037;-83
2022/05/23 05:10:39;;;;;;;2.47;1.85;;;12.60;99.90;;;;;;4954846;28;20084;-83
2022/05/23 05:13:05;;;;;;;3.72;2.30;;;12.60;99.90;;;;;;4975667;28;20032;-84
2022/05/23 05:15:31;;;;;;;3.38;2.10;;;12.80;99.90;;;;;;4985564;28;20046;-84
2022/05/23 05:17:58;;;;;;;2.50;2.38;;;12.90;99.90;;;;;;4977199;28;20026;-84
2022/05/23 05:20:26;;;;;;;2.17;2.08;;;12.90;99.90;;;;;;4961111;28;20038;-84
2022/05/23 05:22:58;;;;;;;2.53;2.10;;;13.10;99.90;;;;;;4980672;28;20496;-84
2022/05/23 05:25:29;;;;;;;3.88;2.60;;;13.10;99.90;;;;;;4966271;28;20489;-83
2022/05/23 05:27:58;;;;;;;1.95;1.75;;;13.30;99.90;;;;;;4960856;28;20064;-83
2022/05/23 05:30:25;;;;;;;3.47;2.50;;;13.40;99.90;;;;;;4929991;28;20041;-84
2022/05/23 05:32:55;;;;;;;2.15;2.05;;;13.50;99.90;;;;;;4983878;28;20085;-83
2022/05/23 05:35:33;;;;;;;2.47;2.05;;;13.50;99.90;;;;;;4991558;28;20445;-83
2022/05/23 05:38:08;;;;;;;3.30;2.42;;;13.60;99.90;;;;;;4993013;28;20400;-84
2022/05/23 05:40:35;;;;;;;2.42;2.22;;;13.70;99.90;;;;;;4999905;28;20034;-83
2022/05/23 05:43:16;;;;;;;3.72;2.40;;;13.80;99.90;;;;;;4991603;28;20088;-83
2022/05/23 05:45:46;;;;;;;4.00;2.40;;;13.80;99.90;;;;;;5003528;28;20121;-84
2022/05/23 05:48:40;;;;;;;5.88;2.45;;;13.80;99.90;;;;;;4953730;28;20034;-83
2022/05/23 05:51:09;;;;;;;2.70;2.22;;;14.00;99.90;;;;;;4984870;28;20661;-84
2022/05/23 05:53:38;;;;;;;2.72;2.08;;;14.10;99.90;;;;;;4956889;28;20034;-83
2022/05/23 05:56:11;;;;;;;7.47;2.08;;;14.20;99.90;;;;;;4979320;28;20036;-84
2022/05/23 05:58:38;;;;;;;4.40;2.03;;;14.20;99.90;;;;;;4943662;28;20038;-83
2022/05/23 06:01:04;;;;;;;4.43;2.00;;;14.30;99.90;;;;;;4976351;28;20025;-83
2022/05/23 06:03:33;;;;;;;2.63;2.28;;;14.40;99.90;;;;;;4967277;28;20034;-82
2022/05/23 06:11:45;;;;;;;1.80;1.70;;;14.50;99.90;;;;;;4959471;28;20026;-84
2022/05/23 06:14:19;;;;;;;1.83;1.42;;;14.60;99.90;;;;;;4967800;28;20025;-82
2022/05/23 06:16:47;;;;;;;1.80;1.58;;;14.60;99.90;;;;;;4956638;28;20093;-83
2022/05/23 06:19:24;;;;;;;4.03;2.20;;;14.60;99.90;;;;;;4961955;28;20936;-83
2022/05/23 06:22:05;;;;;;;5.10;1.95;;;14.60;99.90;;;;;;4961808;28;20027;-84
2022/05/23 06:24:33;;;;;;;2.17;1.92;;;14.60;99.90;;;;;;4960382;28;20044;-85
2022/05/23 06:27:06;;;;;;;4.85;2.20;;;14.70;99.90;;;;;;4985342;28;20034;-84
2022/05/23 06:29:33;;;;;;;4.63;2.25;;;14.70;99.90;;;;;;4989282;28;20034;-83
2022/05/23 06:32:19;;;;;;;3.60;2.17;;;14.80;99.90;;;;;;4991151;28;20030;-84
2022/05/23 06:34:44;;;;;;;3.63;2.00;;;14.90;99.90;;;;;;4949169;28;20037;-84
2022/05/23 06:37:10;;;;;;;1.85;1.75;;;14.90;99.90;;;;;;4976161;28;20034;-83
2022/05/23 06:39:36;;;;;;;3.45;1.70;;;15.00;99.90;;;;;;4967357;28;20034;-83
2022/05/23 06:42:20;;;;;;;3.20;1.90;;;15.20;99.90;;;;;;4973234;28;20561;-86
2022/05/23 06:45:07;;;;;;;3.25;2.03;;;15.40;99.90;;;;;;4980057;28;20063;-84
2022/05/23 06:48:05;;;;;;;2.63;1.70;;;15.60;99.90;;;;;;4935888;28;20567;-84
2022/05/23 06:50:50;;;;;;;2.65;1.75;;;16.00;99.90;;;;;;4963852;28;20040;-83
2022/05/23 06:53:21;;;;;;;4.15;1.80;;;16.20;99.90;;;;;;4981876;28;20064;-84
2022/05/23 06:56:00;;;;;;;4.10;1.90;;;16.40;99.90;;;;;;4986008;28;20122;-85
2022/05/23 06:58:26;;;;;;;2.75;1.30;;;16.60;99.90;;;;;;4969041;28;20128;-84
2022/05/23 07:00:54;;;;;;;2.45;1.40;;;16.60;99.90;;;;;;4958216;28;20105;-83
2022/05/23 07:03:28;;;;;;;1.85;1.55;;;16.70;99.90;;;;;;4978277;28;20030;-84
2022/05/23 07:14:27;;;;;;;3.75;1.50;;;16.60;99.90;;;;;;4962464;28;20283;-85
2022/05/23 07:16:54;;;;;;;3.90;1.90;;;16.50;99.90;;;;;;4952273;28;20026;-84
2022/05/23 07:19:43;;;;;;;1.80;1.70;;;16.40;99.90;;;;;;4981488;28;20072;-83
2022/05/23 07:22:12;;;;;;;2.58;2.15;;;16.40;99.90;;;;;;4951147;28;20508;-85
2022/05/23 07:24:41;;;;;;;2.00;1.88;;;16.50;99.90;;;;;;4958607;28;20034;-84
2022/05/23 07:27:12;;;;;;;3.47;1.60;;;16.60;99.90;;;;;;4977294;28;20026;-84
2022/05/23 07:29:38;;;;;;;2.30;1.88;;;16.60;99.90;;;;;;4962885;28;20050;-84
2022/05/23 07:32:11;;;;;;;1.65;1.55;;;16.60;99.90;;;;;;4997148;28;20045;-85
2022/05/23 07:34:38;;;;;;;1.80;1.70;;;16.60;99.90;;;;;;4975147;28;20050;-86
2022/05/23 07:37:04;;;;;;;3.17;2.13;;;16.50;99.90;;;;;;4941717;28;20038;-84
2022/05/23 07:39:30;;;;;;;5.85;1.98;;;16.50;99.90;;;;;;4976013;28;20350;-85
2022/05/23 07:42:06;;;;;;;2.67;1.88;;;16.50;99.90;;;;;;4950503;28;20029;-83
2022/05/23 07:44:33;;;;;;;3.08;2.13;;;16.50;99.90;;;;;;4956053;28;20034;-86
2022/05/23 07:47:06;;;;;;;2.50;1.83;;;16.40;99.90;;;;;;4987899;28;20034;-85
2022/05/23 07:49:34;;;;;;;2.55;1.90;;;16.40;99.90;;;;;;4971827;28;20104;-84
2022/05/23 07:52:20;;;;;;;2.17;1.73;;;16.40;99.90;;;;;;4984594;28;20698;-83
2022/05/23 08:00:33;;;;;;;2.70;2.10;;;16.30;99.90;;;;;;4980897;28;20053;-86
2022/05/23 08:03:19;;;;;;;6.15;2.30;;;16.20;99.90;;;;;;4997126;28;20556;-83
2022/05/23 08:05:57;;;;;;;1.88;1.75;;;16.20;99.90;;;;;;4993742;28;20030;-84
2022/05/23 08:08:23;;;;;;;2.65;2.30;;;16.10;99.90;;;;;;4990249;28;20534;-86
2022/05/23 08:10:49;;;;;;;3.33;2.28;;;16.10;99.90;;;;;;4951755;28;20036;-86
2022/05/23 08:13:16;;;;;;;2.33;1.85;;;16.10;99.90;;;;;;4996510;28;20026;-85
2022/05/23 08:15:42;;;;;;;2.88;1.63;;;16.10;99.90;;;;;;4986376;28;20505;-85
2022/05/23 08:18:15;;;;;;;2.30;2.00;;;16.10;99.90;;;;;;4991749;28;20130;-84
2022/05/23 08:20:50;;;;;;;4.35;2.25;;;16.10;99.90;;;;;;4965290;28;20457;-84
2022/05/23 08:23:19;;;;;;;2.30;2.10;;;16.00;99.90;;;;;;4961218;28;20026;-84
2022/05/23 08:26:01;;;;;;;2.42;1.80;;;16.00;99.90;;;;;;4978303;28;20600;-85
2022/05/23 08:28:29;;;;;;;2.40;1.70;;;16.10;99.90;;;;;;4948051;28;20078;-84
2022/05/23 08:30:55;;;;;;;3.67;2.13;;;16.10;99.90;;;;;;4976996;28;20109;-85
2022/05/23 08:33:26;;;;;;;4.10;2.30;;;16.20;99.90;;;;;;4958594;28;20045;-85
2022/05/23 08:36:01;;;;;;;2.85;2.25;;;16.20;99.90;;;;;;4989649;28;20465;-85
2022/05/23 08:38:27;;;;;;;3.92;1.73;;;16.30;99.90;;;;;;4972915;28;20117;-85
2022/05/23 08:41:15;;;;;;;3.42;2.38;;;16.30;99.90;;;;;;4992488;28;20030;-84
2022/05/23 08:44:02;;;;;;;2.20;2.10;;;16.40;99.90;;;;;;4974492;28;20125;-83
2022/05/23 08:46:54;;;;;;;2.13;1.92;;;16.50;99.90;;;;;;4975314;28;20571;-84
2022/05/23 08:49:27;;;;;;;5.43;2.35;;;16.70;99.90;;;;;;4967190;28;20030;-83
2022/05/23 08:52:14;;;;;;;4.43;2.22;;;16.90;99.90;;;;;;4984700;28;20117;-85
2022/05/23 08:55:12;;;;;;;2.67;2.33;;;17.20;99.90;;;;;;4948369;28;20034;-84
2022/05/23 08:58:05;;;;;;;3.25;2.30;;;17.50;99.90;;;;;;4993890;28;20172;-85
2022/05/23 09:00:40;;;;;;;8.63;2.40;;;17.50;98.90;;;;;;5004584;28;20027;-85
2022/05/23 09:03:21;;;;;;;2.92;2.20;;;17.60;98.30;;;;;;4946278;28;20065;-84
2022/05/23 09:05:57;;;;;;;3.30;2.20;;;17.70;99.00;;;;;;4951102;28;20049;-83
2022/05/23 09:08:27;;;;;;;5.40;2.60;;;17.80;98.20;;;;;;4995648;28;20034;-84
2022/05/23 09:11:16;;;;;;;2.30;2.10;;;17.90;98.80;;;;;;4990383;28;20041;-85
2022/05/23 09:13:44;;;;;;;6.85;2.20;;;18.00;98.00;;;;;;4978902;28;20033;-84
2022/05/23 09:16:12;;;;;;;5.95;2.45;;;18.10;97.10;;;;;;4989768;28;20038;-86
2022/05/23 09:18:50;;;;;;;4.97;2.22;;;18.10;99.30;;;;;;4970935;28;20038;-84
2022/05/23 09:21:16;;;;;;;2.80;2.10;;;18.30;96.90;;;;;;5001715;28;20033;-85
2022/05/23 09:23:51;;;;;;;2.88;2.20;;;18.20;97.30;;;;;;4935538;28;20037;-85
2022/05/23 09:26:29;;;;;;;1.90;1.80;;;18.40;98.20;;;;;;4979751;28;20036;-85
2022/05/23 09:28:55;;;;;;;6.03;2.30;;;18.70;97.60;;;;;;4970895;28;20280;-86
2022/05/23 09:31:33;;;;;;;2.42;2.10;;;18.80;97.50;;;;;;4984016;28;20327;-85
2022/05/23 09:34:00;;;;;;;3.42;2.25;;;19.10;96.20;;;;;;4988737;28;20048;-85
2022/05/23 09:36:40;;;;;;;3.55;2.00;;;19.10;96.30;;;;;;4987280;28;20515;-85
2022/05/23 09:39:11;;;;;;;2.15;2.03;;;19.30;95.90;;;;;;4967810;28;20034;-83
2022/05/23 09:47:45;;;;;;;6.40;2.00;;;19.50;95.30;;;;;;4986187;28;20038;-84
2022/05/23 09:50:35;;;;;;;5.88;2.40;;;19.50;95.60;;;;;;4970959;28;20083;-84
2022/05/23 09:53:01;;;;;;;1.88;1.70;;;19.60;97.00;;;;;;4986877;28;20109;-85
2022/05/23 09:55:35;;;;;;;2.35;1.95;;;19.80;96.60;;;;;;4950003;28;20058;-83
2022/05/23 09:58:07;;;;;;;5.53;2.08;;;19.60;93.80;;;;;;4980084;28;20113;-85
2022/05/23 10:00:37;;;;;;;3.65;2.08;;;19.80;94.60;;;;;;4998876;28;20057;-85
2022/05/23 10:03:27;;;;;;;5.53;1.95;;;20.00;93.80;;;;;;4981778;28;20055;-84
2022/05/23 10:06:06;;;;;;;2.20;2.00;;;20.00;93.00;;;;;;4974342;28;20132;-85
2022/05/23 10:08:38;;;;;;;3.15;2.20;;;20.00;92.50;;;;;;4986274;28;20033;-84
2022/05/23 10:11:19;;;;;;;5.28;2.00;;;20.00;94.90;;;;;;4996555;28;20023;-85
2022/05/23 10:13:50;;;;;;;2.55;1.90;;;20.00;93.10;;;;;;4963220;28;20038;-86
2022/05/23 10:16:23;;;;;;;5.03;2.10;;;20.10;93.30;;;;;;4968088;28;20484;-84
2022/05/23 10:19:02;;;;;;;2.10;2.00;;;20.10;92.80;;;;;;4979494;28;20489;-85
2022/05/23 10:21:40;;;;;;;2.20;2.05;;;20.00;92.70;;;;;;4960143;28;20044;-85
2022/05/23 10:24:11;;;;;;;2.50;1.73;;;20.00;93.30;;;;;;4985210;28;20028;-84
2022/05/23 10:27:03;;;;;;;3.90;2.00;;;20.20;93.10;;;;;;5004978;28;20041;-86
2022/05/23 10:29:53;;;;;;;4.22;2.00;;;20.30;92.40;;;;;;4981004;28;20093;-86
2022/05/23 10:32:48;;;;;;;3.10;1.95;;;20.30;91.40;;;;;;4963568;28;20041;-85
2022/05/23 10:35:38;;;;;;;2.03;1.83;;;20.30;91.40;;;;;;4987924;28;20039;-84
2022/05/23 10:43:58;;;;;;;3.83;1.92;;;20.10;90.80;;;;;;4908448;29;20290;-86
2022/05/23 10:46:26;;;;;;;3.03;1.92;;;19.90;90.80;;;;;;4971517;28;20038;-86
2022/05/23 10:48:59;;;;;;;2.20;2.00;;;19.80;92.70;;;;;;4989703;28;20504;-86
2022/05/23 10:51:31;;;;;;;5.53;2.10;;;19.80;91.10;;;;;;4988842;28;20030;-84
2022/05/23 10:54:27;;;;;;;2.30;2.10;;;19.80;91.60;;;;;;4983381;28;20022;-85
2022/05/23 10:57:11;;;;;;;3.25;1.90;;;19.80;92.10;;;;;;4967689;28;20085;-85
2022/05/23 11:00:02;;;;;;;4.10;2.03;;;19.90;93.30;;;;;;4978198;28;20112;-86
2022/05/23 11:02:55;;;;;;;2.47;2.13;;;20.10;92.70;;;;;;4986827;28;20044;-85
2022/05/23 11:05:48;;;;;;;2.95;2.22;;;20.20;92.90;;;;;;4986931;28;20065;-87
2022/05/23 11:08:16;;;;;;;3.40;2.05;;;20.30;91.10;;;;;;4995072;28;20065;-84
2022/05/23 11:11:05;;;;;;;3.28;1.77;;;20.30;93.10;;;;;;4977567;28;20049;-83
2022/05/23 11:14:08;;;;;;;3.65;2.30;;;20.40;92.70;;;;;;4989250;28;20029;-84
2022/05/23 11:17:02;;;;;;;2.85;1.90;;;20.50;91.80;;;;;;5009832;28;20038;-83
2022/05/23 11:19:32;;;;;;;5.93;2.30;;;20.60;92.60;;;;;;4980295;28;20030;-85
2022/05/23 11:22:20;;;;;;;4.47;2.17;;;20.70;91.40;;;;;;4972553;28;20121;-83
2022/05/23 11:25:02;;;;;;;3.67;2.55;;;20.80;92.60;;;;;;4963933;28;20046;-85
2022/05/23 11:36:09;;;;;;;4.85;2.47;;;20.70;91.00;;;;;;4985513;28;20128;-86
2022/05/23 11:38:42;;;;;;;2.25;2.08;;;20.60;92.10;;;;;;4980118;28;20050;-85
2022/05/23 11:41:10;;;;;;;4.57;2.47;;;20.50;90.80;;;;;;5003397;28;20492;-85
2022/05/23 11:43:36;;;;;;;3.13;2.42;;;20.60;91.00;;;;;;4972051;28;20050;-87
2022/05/23 11:46:06;;;;;;;2.60;2.40;;;20.60;90.70;;;;;;4985714;28;20490;-86
2022/05/23 11:48:40;;;;;;;3.05;2.22;;;20.50;90.90;;;;;;4987399;28;20030;-85
2022/05/23 11:51:12;;;;;;;4.63;2.97;;;20.40;91.80;;;;;;4974150;28;20029;-85
2022/05/23 11:54:10;;;;;;;3.00;2.75;;;20.50;91.40;;;;;;4974599;28;20126;-85
2022/05/23 11:56:43;;;;;;;3.80;2.85;;;20.70;92.30;;;;;;4965427;28;20057;-86
2022/05/23 11:59:12;;;;;;;4.32;2.70;;;20.70;91.70;;;;;;4981534;28;20034;-85
2022/05/23 12:01:39;;;;;;;3.47;2.72;;;20.60;91.50;;;;;;4987289;28;20041;-84
2022/05/23 12:04:04;;;;;;;4.03;2.65;;;20.50;91.80;;;;;;4967366;28;20631;-85
2022/05/23 12:06:31;;;;;;;3.22;2.95;;;20.60;92.20;;;;;;4977132;28;20030;-86
2022/05/23 12:08:57;;;;;;;3.10;2.78;;;20.70;92.60;;;;;;4997203;28;20030;-86
2022/05/23 12:11:25;;;;;;;3.53;2.72;;;20.90;92.10;;;;;;4988360;28;20038;-85
2022/05/23 12:13:52;;;;;;;2.70;2.45;;;20.90;91.90;;;;;;4966347;28;20073;-86
2022/05/23 12:16:30;;;;;;;2.60;2.40;;;21.20;92.10;;;;;;4988693;28;20062;-86
2022/05/23 12:19:08;;;;;;;3.22;2.55;;;21.30;91.20;;;;;;4970098;28;20030;-85
2022/05/23 12:21:45;;;;;;;3.50;2.15;;;21.50;92.70;;;;;;4988302;28;20041;-85
2022/05/23 12:24:22;;;;;;;2.45;2.25;;;21.70;90.50;;;;;;4979793;28;20393;-84
2022/05/23 12:26:51;;;;;;;4.22;2.65;;;21.90;90.20;;;;;;4977112;28;20030;-85
2022/05/23 12:29:37;;;;;;;2.38;2.25;;;21.90;91.40;;;;;;4964056;28;20045;-84
2022/05/23 12:32:21;;;;;;;4.10;2.20;;;22.00;90.30;;;;;;4975121;28;20551;-87
2022/05/23 12:34:49;;;;;;;3.00;2.28;;;22.00;90.00;;;;;;5001723;28;20120;-85
2022/05/23 12:37:20;;;;;;;2.33;2.17;;;22.10;92.30;;;;;;4965617;28;20058;-84
2022/05/23 12:40:17;;;;;;;2.10;1.90;;;22.20;90.90;;;;;;4975082;28;20053;-84
2022/05/23 12:42:59;;;;;;;2.00;1.90;;;22.20;91.10;;;;;;4972763;28;20041;-86
2022/05/23 12:45:30;;;;;;;2.63;2.10;;;22.30;88.30;;;;;;4985019;28;20030;-84
2022/05/23 12:48:16;;;;;;;3.22;2.30;;;22.30;85.20;;;;;;5000763;28;20079;-86
2022/05/23 12:51:11;;;;;;;3.10;2.17;;;22.30;83.20;;;;;;4974862;28;20064;-84
2022/05/23 12:53:40;;;;;;;3.58;2.13;;;22.50;87.40;;;;;;5002762;28;20058;-86
2022/05/23 12:56:46;;;;;;;2.25;1.92;;;22.70;87.10;;;;;;5002892;28;20039;-84
2022/05/23 12:59:41;;;;;;;2.10;1.90;;;23.00;85.40;;;;;;5014290;28;20040;-85
2022/05/23 13:02:32;;;;;;;5.03;2.28;;;23.10;85.40;;;;;;4975290;28;20120;-87
2022/05/23 13:05:07;;;;;;;3.50;1.73;;;23.20;82.30;;;;;;4994938;28;20080;-85
2022/05/23 13:07:47;;;;;;;3.88;2.08;;;23.20;80.40;;;;;;5005397;28;20040;-86
2022/05/23 13:10:44;;;;;;;2.45;1.60;;;23.20;78.80;;;;;;4992855;28;20121;-85
2022/05/23 13:13:31;;;;;;;2.97;1.80;;;23.00;79.70;;;;;;4966990;28;20121;-84
2022/05/23 13:16:12;;;;;;;3.70;1.60;;;23.00;82.80;;;;;;5009413;28;20041;-85
2022/05/23 13:27:10;;;;;;;2.22;1.90;;;23.00;82.50;;;;;;4995353;28;20042;-84
2022/05/23 13:29:36;;;;;;;3.78;2.03;;;22.90;81.80;;;;;;4969342;28;20026;-85
2022/05/23 13:32:07;;;;;;;2.58;1.92;;;22.90;83.50;;;;;;5002994;28;20041;-84
2022/05/23 13:34:39;;;;;;;4.80;1.98;;;22.80;81.60;;;;;;4957936;28;20034;-84
2022/05/23 13:37:06;;;;;;;3.00;1.90;;;22.80;82.80;;;;;;4977645;28;20034;-84
2022/05/23 13:39:32;;;;;;;4.20;2.03;;;22.90;87.50;;;;;;4961520;28;20069;-84
2022/05/23 13:42:03;;;;;;;2.47;1.80;;;23.10;83.60;;;;;;4965000;28;20045;-84
2022/05/23 13:44:32;;;;;;;2.78;1.55;;;23.20;87.60;;;;;;4991210;28;20038;-84
2022/05/23 13:47:11;;;;;;;2.22;1.67;;;23.40;89.90;;;;;;4961603;28;20489;-84
2022/05/23 13:49:53;;;;;;;3.95;2.00;;;23.50;81.90;;;;;;4964771;28;20044;-84
2022/05/23 13:52:52;;;;;;;2.25;1.77;;;23.40;82.60;;;;;;4986051;28;20026;-84
2022/05/23 13:55:30;;;;;;;2.95;1.52;;;23.60;88.40;;;;;;4979446;28;20046;-83
2022/05/23 13:58:14;;;;;;;4.15;1.40;;;23.60;83.50;;;;;;4995761;28;20022;-85
2022/05/23 14:00:47;;;;;;;2.60;1.65;;;23.80;84.10;;;;;;5008251;28;20423;-84
2022/05/23 14:03:26;;;;;;;1.95;1.50;;;23.80;82.60;;;;;;4958768;28;20034;-85
2022/05/23 14:05:54;;;;;;;4.13;1.88;;;23.80;85.20;;;;;;4995410;28;20038;-84
2022/05/23 14:08:36;;;;;;;3.42;1.88;;;23.70;85.20;;;;;;4965908;28;20044;-83
2022/05/23 14:11:22;;;;;;;2.95;1.65;;;23.70;85.30;;;;;;4977012;28;20054;-84
2022/05/23 14:13:50;;;;;;;1.83;1.50;;;23.60;85.00;;;;;;4994380;28;20034;-84
2022/05/23 14:16:19;;;;;;;3.65;2.08;;;23.60;86.00;;;;;;5021152;28;20631;-84
2022/05/23 14:19:00;;;;;;;3.53;2.30;;;23.50;83.20;;;;;;4962120;28;20038;-84
2022/05/23 14:21:37;;;;;;;2.47;1.60;;;23.40;85.20;;;;;;4979784;28;20054;-84
2022/05/23 14:24:28;;;;;;;2.00;1.40;;;23.30;85.80;;;;;;4994045;28;20165;-84
2022/05/23 14:27:20;;;;;;;2.00;1.60;;;23.20;82.00;;;;;;4974168;28;20038;-83
2022/05/23 14:29:47;;;;;;;2.90;1.60;;;23.00;84.70;;;;;;4973853;28;20087;-84